sensor_id;sensor_type;location;lat;lon;timestamp;pressure;altitude;pressure_sealevel;temperature;humidity
64853;BME280;56050;55.558;-4.644;2022-09-09T00:15:18;100532.84;;;17.00;75.92
64853;BME280;56050;55.558;-4.644;2022-09-09T00:18:07;100539.06;;;17.00;75.94
64853;BME280;56050;55.558;-4.644;2022-09-09T00:20:44;100544.50;;;17.00;75.83
64853;BME280;56050;55.558;-4.644;2022-09-09T00:23:34;100543.75;;;17.00;75.96
64853;BME280;56050;55.558;-4.644;2022-09-09T00:29:02;100541.13;;;16.96;75.71
64853;BME280;56050;55.558;-4.644;2022-09-09T00:31:30;100551.59;;;16.98;75.94
64853;BME280;56050;55.558;-4.644;2022-09-09T00:34:18;100551.25;;;16.96;75.96
64853;BME280;56050;55.558;-4.644;2022-09-09T00:36:48;100552.78;;;16.97;75.88
64853;BME280;56050;55.558;-4.644;2022-09-09T00:39:27;100554.31;;;16.98;75.99
64853;BME280;56050;55.558;-4.644;2022-09-09T00:42:14;100554.63;;;17.00;76.04
64853;BME280;56050;55.558;-4.644;2022-09-09T00:45:01;100554.94;;;17.02;75.83
64853;BME280;56050;55.558;-4.644;2022-09-09T00:58:17;100557.91;;;17.08;75.74
64853;BME280;56050;55.558;-4.644;2022-09-09T01:00:50;100561.38;;;17.08;75.64
64853;BME280;56050;55.558;-4.644;2022-09-09T01:03:37;100554.31;;;17.11;75.74
64853;BME280;56050;55.558;-4.644;2022-09-09T01:11:21;100556.84;;;17.18;75.47
64853;BME280;56050;55.558;-4.644;2022-09-09T01:13:50;100557.16;;;17.20;75.40
64853;BME280;56050;55.558;-4.644;2022-09-09T01:16:18;100560.66;;;17.20;75.25
64853;BME280;56050;55.558;-4.644;2022-09-09T01:18:46;100557.94;;;17.20;75.48
64853;BME280;56050;55.558;-4.644;2022-09-09T01:21:35;100559.09;;;17.19;75.40
64853;BME280;56050;55.558;-4.644;2022-09-09T01:26:46;100566.09;;;17.20;75.36
64853;BME280;56050;55.558;-4.644;2022-09-09T01:29:14;100562.59;;;17.20;75.40
64853;BME280;56050;55.558;-4.644;2022-09-09T01:32:01;100561.06;;;17.19;75.41
64853;BME280;56050;55.558;-4.644;2022-09-09T01:34:33;100563.38;;;17.20;75.20
64853;BME280;56050;55.558;-4.644;2022-09-09T01:37:04;100569.13;;;17.22;75.35
64853;BME280;56050;55.558;-4.644;2022-09-09T01:39:32;100567.59;;;17.21;75.24
64853;BME280;56050;55.558;-4.644;2022-09-09T01:41:58;100569.13;;;17.22;75.21
64853;BME280;56050;55.558;-4.644;2022-09-09T01:44:24;100570.31;;;17.21;75.31
64853;BME280;56050;55.558;-4.644;2022-09-09T01:46:51;100571.09;;;17.22;75.31
64853;BME280;56050;55.558;-4.644;2022-09-09T01:49:18;100575.75;;;17.21;75.53
64853;BME280;56050;55.558;-4.644;2022-09-09T01:51:46;100570.00;;;17.19;75.30
64853;BME280;56050;55.558;-4.644;2022-09-09T01:54:14;100573.50;;;17.20;75.27
64853;BME280;56050;55.558;-4.644;2022-09-09T02:05:46;100582.75;;;17.22;75.16
64853;BME280;56050;55.558;-4.644;2022-09-09T02:08:24;100581.66;;;17.20;75.27
64853;BME280;56050;55.558;-4.644;2022-09-09T02:11:09;100587.88;;;17.20;75.34
64853;BME280;56050;55.558;-4.644;2022-09-09T02:13:37;100589.38;;;17.21;75.37
64853;BME280;56050;55.558;-4.644;2022-09-09T02:21:53;100585.03;;;17.24;75.22
64853;BME280;56050;55.558;-4.644;2022-09-09T02:24:21;100587.31;;;17.25;75.32
64853;BME280;56050;55.558;-4.644;2022-09-09T02:26:49;100585.03;;;17.24;75.23
64853;BME280;56050;55.558;-4.644;2022-09-09T02:29:26;100588.50;;;17.24;75.23
64853;BME280;56050;55.558;-4.644;2022-09-09T02:31:55;100592.00;;;17.25;75.31
64853;BME280;56050;55.558;-4.644;2022-09-09T02:34:23;100591.69;;;17.23;75.31
64853;BME280;56050;55.558;-4.644;2022-09-09T02:36:52;100591.34;;;17.21;75.14
64853;BME280;56050;55.558;-4.644;2022-09-09T02:39:19;100589.81;;;17.20;75.23
64853;BME280;56050;55.558;-4.644;2022-09-09T02:41:44;100589.91;;;17.16;75.13
64853;BME280;56050;55.558;-4.644;2022-09-09T02:44:12;100591.56;;;17.14;75.07
64853;BME280;56050;55.558;-4.644;2022-09-09T02:52:01;100588.59;;;17.08;75.24
64853;BME280;56050;55.558;-4.644;2022-09-09T02:54:35;100590.16;;;17.09;75.20
64853;BME280;56050;55.558;-4.644;2022-09-09T02:59:31;100590.25;;;17.06;75.46
64853;BME280;56050;55.558;-4.644;2022-09-09T03:01:56;100594.91;;;17.05;75.14
64853;BME280;56050;55.558;-4.644;2022-09-09T03:04:22;100601.53;;;17.04;75.22
64853;BME280;56050;55.558;-4.644;2022-09-09T03:06:48;100600.44;;;17.01;75.32
64853;BME280;56050;55.558;-4.644;2022-09-09T03:09:14;100604.03;;;16.98;75.28
64853;BME280;56050;55.558;-4.644;2022-09-09T03:11:39;100599.03;;;16.97;75.26
64853;BME280;56050;55.558;-4.644;2022-09-09T03:14:05;100605.34;;;16.94;75.20
64853;BME280;56050;55.558;-4.644;2022-09-09T03:16:30;100606.53;;;16.93;75.46
64853;BME280;56050;55.558;-4.644;2022-09-09T03:18:56;100608.16;;;16.90;75.40
64853;BME280;56050;55.558;-4.644;2022-09-09T03:21:21;100605.88;;;16.89;75.44
64853;BME280;56050;55.558;-4.644;2022-09-09T03:23:47;100604.78;;;16.86;75.54
64853;BME280;56050;55.558;-4.644;2022-09-09T03:26:12;100609.13;;;16.84;75.63
64853;BME280;56050;55.558;-4.644;2022-09-09T03:28:41;100614.22;;;16.82;75.43
64853;BME280;56050;55.558;-4.644;2022-09-09T03:31:07;100613.47;;;16.81;75.60
64853;BME280;56050;55.558;-4.644;2022-09-09T03:33:36;100611.19;;;16.80;75.48
64853;BME280;56050;55.558;-4.644;2022-09-09T03:36:02;100616.63;;;16.80;75.60
64853;BME280;56050;55.558;-4.644;2022-09-09T03:38:28;100625.22;;;16.78;75.24
64853;BME280;56050;55.558;-4.644;2022-09-09T03:40:56;100613.25;;;16.76;75.34
64853;BME280;56050;55.558;-4.644;2022-09-09T03:43:26;100621.06;;;16.74;75.46
64853;BME280;56050;55.558;-4.644;2022-09-09T03:45:52;100621.91;;;16.71;75.49
64853;BME280;56050;55.558;-4.644;2022-09-09T03:48:18;100620.06;;;16.68;75.27
64853;BME280;56050;55.558;-4.644;2022-09-09T03:50:48;100626.69;;;16.67;75.24
64853;BME280;56050;55.558;-4.644;2022-09-09T03:53:15;100634.09;;;16.66;75.65
64853;BME280;56050;55.558;-4.644;2022-09-09T03:55:48;100631.81;;;16.65;75.36
64853;BME280;56050;55.558;-4.644;2022-09-09T03:58:16;100633.44;;;16.62;75.21
64853;BME280;56050;55.558;-4.644;2022-09-09T04:00:52;100629.63;;;16.60;75.28
64853;BME280;56050;55.558;-4.644;2022-09-09T04:03:18;100635.91;;;16.57;75.39
64853;BME280;56050;55.558;-4.644;2022-09-09T04:05:43;100635.19;;;16.53;75.22
64853;BME280;56050;55.558;-4.644;2022-09-09T04:08:09;100638.38;;;16.51;75.33
64853;BME280;56050;55.558;-4.644;2022-09-09T04:10:35;100647.69;;;16.50;75.25
64853;BME280;56050;55.558;-4.644;2022-09-09T04:13:03;100647.78;;;16.46;75.22
64853;BME280;56050;55.558;-4.644;2022-09-09T04:15:29;100649.06;;;16.42;75.65
64853;BME280;56050;55.558;-4.644;2022-09-09T04:17:55;100649.16;;;16.38;75.52
64853;BME280;56050;55.558;-4.644;2022-09-09T04:20:21;100659.28;;;16.38;75.63
64853;BME280;56050;55.558;-4.644;2022-09-09T04:22:47;100661.25;;;16.37;75.68
64853;BME280;56050;55.558;-4.644;2022-09-09T04:25:13;100653.50;;;16.36;75.44
64853;BME280;56050;55.558;-4.644;2022-09-09T04:27:38;100656.66;;;16.34;75.55
64853;BME280;56050;55.558;-4.644;2022-09-09T04:30:04;100658.59;;;16.34;75.63
64853;BME280;56050;55.558;-4.644;2022-09-09T04:32:32;100656.28;;;16.32;75.64
64853;BME280;56050;55.558;-4.644;2022-09-09T04:34:58;100661.00;;;16.32;75.63
64853;BME280;56050;55.558;-4.644;2022-09-09T04:37:23;100666.84;;;16.30;75.56
64853;BME280;56050;55.558;-4.644;2022-09-09T04:39:50;100663.34;;;16.30;75.56
64853;BME280;56050;55.558;-4.644;2022-09-09T04:42:15;100671.50;;;16.30;75.56
64853;BME280;56050;55.558;-4.644;2022-09-09T04:44:43;100664.56;;;16.29;75.57
64853;BME280;56050;55.558;-4.644;2022-09-09T04:47:09;100664.56;;;16.29;75.60
64853;BME280;56050;55.558;-4.644;2022-09-09T04:49:37;100664.56;;;16.29;75.72
64853;BME280;56050;55.558;-4.644;2022-09-09T04:52:03;100666.06;;;16.30;75.71
64853;BME280;56050;55.558;-4.644;2022-09-09T04:54:29;100676.94;;;16.30;75.60
64853;BME280;56050;55.558;-4.644;2022-09-09T04:56:55;100675.78;;;16.31;75.63
64853;BME280;56050;55.558;-4.644;2022-09-09T04:59:21;100680.44;;;16.30;75.40
64853;BME280;56050;55.558;-4.644;2022-09-09T05:01:47;100687.81;;;16.30;75.22
64853;BME280;56050;55.558;-4.644;2022-09-09T05:04:13;100688.59;;;16.30;75.42
64853;BME280;56050;55.558;-4.644;2022-09-09T05:06:40;100683.16;;;16.30;75.40
64853;BME280;56050;55.558;-4.644;2022-09-09T05:09:06;100692.09;;;16.31;75.24
64853;BME280;56050;55.558;-4.644;2022-09-09T05:11:32;100698.69;;;16.30;75.11
64853;BME280;56050;55.558;-4.644;2022-09-09T05:13:59;100698.69;;;16.30;75.09
64853;BME280;56050;55.558;-4.644;2022-09-09T05:16:25;100697.94;;;16.29;74.95
64853;BME280;56050;55.558;-4.644;2022-09-09T05:18:50;100691.75;;;16.29;74.97
64853;BME280;56050;55.558;-4.644;2022-09-09T05:21:17;100693.38;;;16.26;75.07
64853;BME280;56050;55.558;-4.644;2022-09-09T05:23:43;100696.81;;;16.27;74.85
64853;BME280;56050;55.558;-4.644;2022-09-09T05:26:15;100698.44;;;16.24;75.16
64853;BME280;56050;55.558;-4.644;2022-09-09T05:28:41;100704.66;;;16.25;75.09
64853;BME280;56050;55.558;-4.644;2022-09-09T05:31:08;100704.66;;;16.25;75.02
64853;BME280;56050;55.558;-4.644;2022-09-09T05:33:36;100703.88;;;16.24;74.94
64853;BME280;56050;55.558;-4.644;2022-09-09T05:36:04;100709.75;;;16.23;74.86
64853;BME280;56050;55.558;-4.644;2022-09-09T05:38:32;100700.84;;;16.22;74.95
64853;BME280;56050;55.558;-4.644;2022-09-09T05:40:59;100708.22;;;16.22;74.97
64853;BME280;56050;55.558;-4.644;2022-09-09T05:43:25;100714.41;;;16.22;75.06
64853;BME280;56050;55.558;-4.644;2022-09-09T05:46:06;100715.59;;;16.21;75.20
64853;BME280;56050;55.558;-4.644;2022-09-09T05:48:34;100720.63;;;16.23;75.10
64853;BME280;56050;55.558;-4.644;2022-09-09T05:51:01;100714.41;;;16.22;75.26
64853;BME280;56050;55.558;-4.644;2022-09-09T05:53:28;100723.34;;;16.23;75.04
64853;BME280;56050;55.558;-4.644;2022-09-09T05:56:04;100727.16;;;16.25;75.25
64853;BME280;56050;55.558;-4.644;2022-09-09T05:58:31;100733.72;;;16.28;75.32
64853;BME280;56050;55.558;-4.644;2022-09-09T06:01:13;100736.00;;;16.29;75.37
64853;BME280;56050;55.558;-4.644;2022-09-09T06:03:41;100743.28;;;16.32;75.12
64853;BME280;56050;55.558;-4.644;2022-09-09T06:06:09;100744.41;;;16.35;75.06
64853;BME280;56050;55.558;-4.644;2022-09-09T06:08:39;100743.56;;;16.38;75.38
64853;BME280;56050;55.558;-4.644;2022-09-09T06:11:14;100752.81;;;16.40;75.06
64853;BME280;56050;55.558;-4.644;2022-09-09T06:13:40;100755.06;;;16.45;74.95
64853;BME280;56050;55.558;-4.644;2022-09-09T06:16:15;100757.34;;;16.47;75.19
64853;BME280;56050;55.558;-4.644;2022-09-09T06:18:40;100764.22;;;16.52;75.23
64853;BME280;56050;55.558;-4.644;2022-09-09T06:21:09;100764.16;;;16.55;75.02
64853;BME280;56050;55.558;-4.644;2022-09-09T06:23:36;100772.25;;;16.59;74.86
64853;BME280;56050;55.558;-4.644;2022-09-09T06:26:12;100774.44;;;16.64;74.82
64853;BME280;56050;55.558;-4.644;2022-09-09T06:28:38;100786.00;;;16.68;74.71
64853;BME280;56050;55.558;-4.644;2022-09-09T06:31:06;100789.47;;;16.68;74.39
64853;BME280;56050;55.558;-4.644;2022-09-09T06:33:35;100791.47;;;16.68;74.35
64853;BME280;56050;55.558;-4.644;2022-09-09T06:36:01;100798.06;;;16.67;74.55
64853;BME280;56050;55.558;-4.644;2022-09-09T06:38:28;100802.41;;;16.64;74.45
64853;BME280;56050;55.558;-4.644;2022-09-09T06:40:55;100807.09;;;16.64;74.48
64853;BME280;56050;55.558;-4.644;2022-09-09T06:43:22;100807.53;;;16.62;74.52
64853;BME280;56050;55.558;-4.644;2022-09-09T06:45:59;100810.97;;;16.63;74.66
64853;BME280;56050;55.558;-4.644;2022-09-09T06:48:26;100806.25;;;16.67;74.73
64853;BME280;56050;55.558;-4.644;2022-09-09T06:51:19;100815.06;;;16.71;74.58
64853;BME280;56050;55.558;-4.644;2022-09-09T06:53:50;100812.59;;;16.76;74.25
64853;BME280;56050;55.558;-4.644;2022-09-09T06:56:17;100819.91;;;16.79;74.31
64853;BME280;56050;55.558;-4.644;2022-09-09T06:58:44;100823.31;;;16.83;74.49
64853;BME280;56050;55.558;-4.644;2022-09-09T07:01:12;100825.97;;;16.87;74.49
64853;BME280;56050;55.558;-4.644;2022-09-09T07:03:38;100842.63;;;16.89;74.47
64853;BME280;56050;55.558;-4.644;2022-09-09T07:06:05;100835.13;;;16.93;74.26
64853;BME280;56050;55.558;-4.644;2022-09-09T07:08:31;100842.78;;;16.98;74.52
64853;BME280;56050;55.558;-4.644;2022-09-09T07:11:04;100846.94;;;17.02;74.29
64853;BME280;56050;55.558;-4.644;2022-09-09T07:13:30;100842.94;;;17.07;74.35
64853;BME280;56050;55.558;-4.644;2022-09-09T07:16:06;100848.31;;;17.11;74.16
64853;BME280;56050;55.558;-4.644;2022-09-09T07:18:31;100840.81;;;17.15;74.36
64853;BME280;56050;55.558;-4.644;2022-09-09T07:20:58;100847.38;;;17.17;74.44
64853;BME280;56050;55.558;-4.644;2022-09-09T07:23:24;100846.06;;;17.22;74.16
64853;BME280;56050;55.558;-4.644;2022-09-09T07:25:50;100841.72;;;17.24;74.23
64853;BME280;56050;55.558;-4.644;2022-09-09T07:28:17;100846.31;;;17.27;74.14
64853;BME280;56050;55.558;-4.644;2022-09-09T07:30:42;100849.38;;;17.29;74.20
64853;BME280;56050;55.558;-4.644;2022-09-09T07:33:08;100852.47;;;17.31;74.13
64853;BME280;56050;55.558;-4.644;2022-09-09T07:35:35;100864.84;;;17.32;74.17
64853;BME280;56050;55.558;-4.644;2022-09-09T07:38:02;100859.31;;;17.36;74.47
64853;BME280;56050;55.558;-4.644;2022-09-09T07:40:32;100864.69;;;17.39;74.19
64853;BME280;56050;55.558;-4.644;2022-09-09T07:42:57;100871.66;;;17.40;74.47
64853;BME280;56050;55.558;-4.644;2022-09-09T07:45:24;100877.78;;;17.44;74.46
64853;BME280;56050;55.558;-4.644;2022-09-09T07:47:49;100879.66;;;17.47;74.54
64853;BME280;56050;55.558;-4.644;2022-09-09T07:50:15;100879.97;;;17.49;74.14
64853;BME280;56050;55.558;-4.644;2022-09-09T07:52:41;100883.03;;;17.51;74.28
64853;BME280;56050;55.558;-4.644;2022-09-09T07:55:06;100883.41;;;17.53;74.19
64853;BME280;56050;55.558;-4.644;2022-09-09T07:57:32;100887.25;;;17.56;74.21
64853;BME280;56050;55.558;-4.644;2022-09-09T07:59:57;100884.41;;;17.59;74.07
64853;BME280;56050;55.558;-4.644;2022-09-09T08:02:24;100887.91;;;17.60;74.15
64853;BME280;56050;55.558;-4.644;2022-09-09T08:04:50;100895.66;;;17.62;74.25
64853;BME280;56050;55.558;-4.644;2022-09-09T08:07:17;100897.94;;;17.63;74.07
64853;BME280;56050;55.558;-4.644;2022-09-09T08:09:42;100897.53;;;17.65;74.09
64853;BME280;56050;55.558;-4.644;2022-09-09T08:12:09;100903.31;;;17.67;73.99
64853;BME280;56050;55.558;-4.644;2022-09-09T08:14:37;100911.81;;;17.69;74.01
64853;BME280;56050;55.558;-4.644;2022-09-09T08:17:03;100909.06;;;17.69;74.17
64853;BME280;56050;55.558;-4.644;2022-09-09T08:19:28;100915.72;;;17.68;74.35
64853;BME280;56050;55.558;-4.644;2022-09-09T08:21:55;100913.00;;;17.68;74.06
64853;BME280;56050;55.558;-4.644;2022-09-09T08:24:20;100915.72;;;17.68;74.13
64853;BME280;56050;55.558;-4.644;2022-09-09T08:26:47;100916.06;;;17.70;74.10
64853;BME280;56050;55.558;-4.644;2022-09-09T08:29:17;100922.94;;;17.74;74.00
64853;BME280;56050;55.558;-4.644;2022-09-09T08:31:53;100922.53;;;17.76;74.23
64853;BME280;56050;55.558;-4.644;2022-09-09T08:34:23;100922.84;;;17.78;73.96
64853;BME280;56050;55.558;-4.644;2022-09-09T08:36:50;100930.59;;;17.79;74.07
64853;BME280;56050;55.558;-4.644;2022-09-09T08:39:18;100931.69;;;17.82;74.01
64853;BME280;56050;55.558;-4.644;2022-09-09T08:50:22;100938.59;;;17.86;73.92
64853;BME280;56050;55.558;-4.644;2022-09-09T08:58:16;100948.44;;;17.96;74.06
64853;BME280;56050;55.558;-4.644;2022-09-09T09:09:57;100974.22;;;18.08;74.15
64853;BME280;56050;55.558;-4.644;2022-09-09T09:12:19;100977.59;;;18.12;73.97
64853;BME280;56050;55.558;-4.644;2022-09-09T09:14:47;100976.41;;;18.13;74.02
64853;BME280;56050;55.558;-4.644;2022-09-09T09:17:18;100972.50;;;18.14;74.25
64853;BME280;56050;55.558;-4.644;2022-09-09T09:19:45;100986.13;;;18.14;73.65
64853;BME280;56050;55.558;-4.644;2022-09-09T09:22:19;100983.72;;;18.16;74.13
64853;BME280;56050;55.558;-4.644;2022-09-09T09:24:55;100997.28;;;18.19;73.98
64853;BME280;56050;55.558;-4.644;2022-09-09T09:27:35;100988.56;;;18.25;73.85
64853;BME280;56050;55.558;-4.644;2022-09-09T09:30:16;100985.63;;;18.32;73.85
64853;BME280;56050;55.558;-4.644;2022-09-09T09:35:18;100983.22;;;18.50;73.80
64853;BME280;56050;55.558;-4.644;2022-09-09T09:37:44;100994.22;;;18.59;73.49
64853;BME280;56050;55.558;-4.644;2022-09-09T09:40:16;101001.47;;;18.65;73.61
64853;BME280;56050;55.558;-4.644;2022-09-09T09:43:16;101016.09;;;18.71;73.12
64853;BME280;56050;55.558;-4.644;2022-09-09T09:45:44;101027.56;;;18.66;72.79
64853;BME280;56050;55.558;-4.644;2022-09-09T09:48:12;101021.97;;;18.57;72.99
64853;BME280;56050;55.558;-4.644;2022-09-09T09:51:03;101031.47;;;18.53;72.88
64853;BME280;56050;55.558;-4.644;2022-09-09T09:53:33;101037.84;;;18.46;72.91
64853;BME280;56050;55.558;-4.644;2022-09-09T09:56:01;101038.66;;;18.31;73.12
64853;BME280;56050;55.558;-4.644;2022-09-09T09:58:30;101050.38;;;18.15;73.59
64853;BME280;56050;55.558;-4.644;2022-09-09T10:00:57;101056.53;;;18.03;73.74
64853;BME280;56050;55.558;-4.644;2022-09-09T10:03:27;101051.69;;;17.94;74.01
64853;BME280;56050;55.558;-4.644;2022-09-09T10:05:54;101051.84;;;17.87;74.16
64853;BME280;56050;55.558;-4.644;2022-09-09T10:08:22;101057.84;;;17.82;74.18
64853;BME280;56050;55.558;-4.644;2022-09-09T10:14:21;101071.38;;;17.86;73.88
64853;BME280;56050;55.558;-4.644;2022-09-09T10:17:04;101075.47;;;17.94;74.09
64853;BME280;56050;55.558;-4.644;2022-09-09T10:19:36;101069.81;;;18.01;73.72
64853;BME280;56050;55.558;-4.644;2022-09-09T10:27:54;101084.44;;;18.23;73.24
64853;BME280;56050;55.558;-4.644;2022-09-09T10:30:45;101083.59;;;18.26;73.02
64853;BME280;56050;55.558;-4.644;2022-09-09T10:38:40;101089.19;;;18.35;72.18
64853;BME280;56050;55.558;-4.644;2022-09-09T10:41:15;101088.66;;;18.40;72.07
64853;BME280;56050;55.558;-4.644;2022-09-09T10:46:57;101089.94;;;18.52;71.65
64853;BME280;56050;55.558;-4.644;2022-09-09T10:57:16;101105.25;;;18.62;70.59
64853;BME280;56050;55.558;-4.644;2022-09-09T10:59:47;101102.19;;;18.60;70.27
64853;BME280;56050;55.558;-4.644;2022-09-09T11:02:30;101110.81;;;18.58;70.08
64853;BME280;56050;55.558;-4.644;2022-09-09T11:04:58;101109.28;;;18.57;69.72
64853;BME280;56050;55.558;-4.644;2022-09-09T11:10:03;101124.03;;;18.60;69.83
64853;BME280;56050;55.558;-4.644;2022-09-09T11:12:34;101130.69;;;18.59;69.29
64853;BME280;56050;55.558;-4.644;2022-09-09T11:15:31;101127.53;;;18.60;69.11
64853;BME280;56050;55.558;-4.644;2022-09-09T11:18:01;101124.47;;;18.58;68.59
64853;BME280;56050;55.558;-4.644;2022-09-09T11:20:29;101121.22;;;18.63;68.62
64853;BME280;56050;55.558;-4.644;2022-09-09T11:23:13;101134.41;;;18.65;68.51
64853;BME280;56050;55.558;-4.644;2022-09-09T11:25:55;101136.97;;;18.72;68.11
64853;BME280;56050;55.558;-4.644;2022-09-09T11:39:56;101148.63;;;19.14;67.39
64853;BME280;56050;55.558;-4.644;2022-09-09T11:42:18;101141.66;;;19.25;66.88
64853;BME280;56050;55.558;-4.644;2022-09-09T11:44:45;101147.19;;;19.38;66.91
64853;BME280;56050;55.558;-4.644;2022-09-09T11:47:31;101148.84;;;19.48;66.52
64853;BME280;56050;55.558;-4.644;2022-09-09T11:52:41;101147.28;;;19.72;65.40
64853;BME280;56050;55.558;-4.644;2022-09-09T11:58:05;101159.97;;;19.91;63.89
64853;BME280;56050;55.558;-4.644;2022-09-09T12:02:59;101166.75;;;20.00;63.13
64853;BME280;56050;55.558;-4.644;2022-09-09T12:05:37;101174.06;;;20.03;63.34
64853;BME280;56050;55.558;-4.644;2022-09-09T12:08:04;101164.88;;;20.09;62.64
64853;BME280;56050;55.558;-4.644;2022-09-09T12:10:32;101173.19;;;20.18;62.79
64853;BME280;56050;55.558;-4.644;2022-09-09T12:13:28;101184.69;;;20.26;62.35
64853;BME280;56050;55.558;-4.644;2022-09-09T12:15:58;101167.06;;;20.27;62.54
64853;BME280;56050;55.558;-4.644;2022-09-09T12:18:39;101183.56;;;20.23;61.93
64853;BME280;56050;55.558;-4.644;2022-09-09T12:24:01;101195.94;;;20.15;61.59
64853;BME280;56050;55.558;-4.644;2022-09-09T12:26:43;101209.84;;;20.08;61.02
64853;BME280;56050;55.558;-4.644;2022-09-09T12:29:37;101203.06;;;20.00;60.84
64853;BME280;56050;55.558;-4.644;2022-09-09T12:32:19;101198.25;;;19.91;60.22
64853;BME280;56050;55.558;-4.644;2022-09-09T12:35:12;101201.13;;;19.88;60.27
64853;BME280;56050;55.558;-4.644;2022-09-09T12:37:43;101203.50;;;19.86;59.96
64853;BME280;56050;55.558;-4.644;2022-09-09T12:40:21;101207.00;;;19.86;59.80
64853;BME280;56050;55.558;-4.644;2022-09-09T12:42:46;101205.38;;;19.89;59.35
64853;BME280;56050;55.558;-4.644;2022-09-09T12:45:20;101209.66;;;19.90;58.71
64853;BME280;56050;55.558;-4.644;2022-09-09T12:50:47;101197.19;;;20.02;58.15
64853;BME280;56050;55.558;-4.644;2022-09-09T12:53:35;101205.91;;;20.09;57.64
64853;BME280;56050;55.558;-4.644;2022-09-09T12:56:06;101209.50;;;20.19;57.94
64853;BME280;56050;55.558;-4.644;2022-09-09T12:58:33;101217.53;;;20.26;57.73
64853;BME280;56050;55.558;-4.644;2022-09-09T13:01:01;101214.13;;;20.34;57.93
64853;BME280;56050;55.558;-4.644;2022-09-09T13:03:30;101228.31;;;20.42;57.71
64853;BME280;56050;55.558;-4.644;2022-09-09T13:06:12;101227.34;;;20.48;57.32
64853;BME280;56050;55.558;-4.644;2022-09-09T13:08:38;101227.09;;;20.56;57.22
64853;BME280;56050;55.558;-4.644;2022-09-09T13:11:09;101235.81;;;20.63;57.69
64853;BME280;56050;55.558;-4.644;2022-09-09T13:13:38;101230.44;;;20.72;57.36
64853;BME280;56050;55.558;-4.644;2022-09-09T13:16:06;101234.16;;;20.78;56.90
64853;BME280;56050;55.558;-4.644;2022-09-09T13:18:35;101246.63;;;20.79;56.03
64853;BME280;56050;55.558;-4.644;2022-09-09T13:21:03;101251.16;;;20.73;55.27
64853;BME280;56050;55.558;-4.644;2022-09-09T13:23:34;101256.63;;;20.61;54.11
64853;BME280;56050;55.558;-4.644;2022-09-09T13:26:06;101259.72;;;20.50;54.38
64853;BME280;56050;55.558;-4.644;2022-09-09T13:28:46;101253.84;;;20.39;54.01
64853;BME280;56050;55.558;-4.644;2022-09-09T13:31:28;101261.31;;;20.26;54.64
64853;BME280;56050;55.558;-4.644;2022-09-09T13:33:53;101259.00;;;20.24;54.95
64853;BME280;56050;55.558;-4.644;2022-09-09T13:36:32;101254.63;;;20.27;54.90
64853;BME280;56050;55.558;-4.644;2022-09-09T13:39:00;101261.41;;;20.35;55.30
64853;BME280;56050;55.558;-4.644;2022-09-09T13:41:41;101264.78;;;20.39;54.84
64853;BME280;56050;55.558;-4.644;2022-09-09T13:44:20;101263.59;;;20.40;54.54
64853;BME280;56050;55.558;-4.644;2022-09-09T13:46:48;101265.78;;;20.45;54.67
64853;BME280;56050;55.558;-4.644;2022-09-09T13:49:28;101266.97;;;20.44;53.98
64853;BME280;56050;55.558;-4.644;2022-09-09T13:52:13;101270.78;;;20.46;53.97
64853;BME280;56050;55.558;-4.644;2022-09-09T13:54:40;101270.69;;;20.50;53.38
64853;BME280;56050;55.558;-4.644;2022-09-09T13:57:24;101280.66;;;20.44;52.92
64853;BME280;56050;55.558;-4.644;2022-09-09T13:59:52;101281.53;;;20.41;52.87
64853;BME280;56050;55.558;-4.644;2022-09-09T14:02:18;101285.91;;;20.38;53.44
64853;BME280;56050;55.558;-4.644;2022-09-09T14:04:44;101289.88;;;20.37;53.21
64853;BME280;56050;55.558;-4.644;2022-09-09T14:07:15;101284.81;;;20.36;53.19
64853;BME280;56050;55.558;-4.644;2022-09-09T14:09:41;101295.00;;;20.35;53.63
64853;BME280;56050;55.558;-4.644;2022-09-09T14:12:13;101301.59;;;20.38;53.37
64853;BME280;56050;55.558;-4.644;2022-09-09T14:14:40;101308.56;;;20.39;53.42
64853;BME280;56050;55.558;-4.644;2022-09-09T14:17:08;101317.13;;;20.28;53.32
64853;BME280;56050;55.558;-4.644;2022-09-09T14:19:33;101325.41;;;20.12;53.66
64853;BME280;56050;55.558;-4.644;2022-09-09T14:21:59;101319.16;;;19.99;53.98
64853;BME280;56050;55.558;-4.644;2022-09-09T14:24:24;101317.94;;;19.87;53.98
64853;BME280;56050;55.558;-4.644;2022-09-09T14:26:50;101316.25;;;19.77;54.06
64853;BME280;56050;55.558;-4.644;2022-09-09T14:29:16;101315.72;;;19.70;54.32
64853;BME280;56050;55.558;-4.644;2022-09-09T14:31:41;101306.09;;;19.65;54.34
64853;BME280;56050;55.558;-4.644;2022-09-09T14:34:07;101310.09;;;19.61;54.39
64853;BME280;56050;55.558;-4.644;2022-09-09T14:36:33;101315.16;;;19.62;54.71
64853;BME280;56050;55.558;-4.644;2022-09-09T14:38:58;101313.84;;;19.67;54.66
64853;BME280;56050;55.558;-4.644;2022-09-09T14:41:24;101315.47;;;19.64;54.72
64853;BME280;56050;55.558;-4.644;2022-09-09T14:43:50;101314.81;;;19.60;54.67
64853;BME280;56050;55.558;-4.644;2022-09-09T14:46:17;101313.19;;;19.63;55.28
64853;BME280;56050;55.558;-4.644;2022-09-09T14:48:43;101316.94;;;19.69;55.17
64853;BME280;56050;55.558;-4.644;2022-09-09T14:51:15;101317.03;;;19.78;55.08
64853;BME280;56050;55.558;-4.644;2022-09-09T14:53:42;101317.84;;;19.91;55.06
64853;BME280;56050;55.558;-4.644;2022-09-09T14:56:14;101319.59;;;19.98;55.32
64853;BME280;56050;55.558;-4.644;2022-09-09T14:58:39;101324.19;;;20.01;54.60
64853;BME280;56050;55.558;-4.644;2022-09-09T15:01:08;101318.41;;;19.99;55.20
64853;BME280;56050;55.558;-4.644;2022-09-09T15:03:36;101315.22;;;20.00;55.14
64853;BME280;56050;55.558;-4.644;2022-09-09T15:06:11;101302.00;;;19.99;55.23
64853;BME280;56050;55.558;-4.644;2022-09-09T15:08:38;101303.19;;;19.98;55.33
64853;BME280;56050;55.558;-4.644;2022-09-09T15:11:05;101308.00;;;19.93;55.31
64853;BME280;56050;55.558;-4.644;2022-09-09T15:13:33;101303.41;;;19.90;55.20